Terminal Aerodrome Forecast
Issued by NWS

Home | Current Version | Previous Version | Text Only | Print | Product List | Glossary Off
Versions: 1 2 3 4 5 6 7 8 9 10 11 12 13 14 15 16

000
FTUS42 KMHX 041800 AAA
TAFPGV
TAF AMD
KPGV 041800Z 0418/0518 25015G25KT P6SM VCTS SCT050CB BKN100
      TEMPO 0418/0420 26020G30KT 4SM -TSRA SCT030CB
     FM050000 22006KT P6SM VCTS SCT050CB BKN100
     FM050600 VRB03KT P6SM SCT100
     FM051200 24007KT P6SM BKN250
      AMD LTD TO CLD VIS AND WIND=

USA.gov is the U.S. government's official web portal to all federal, state and local government web resources and services.